Time;durP1;ratioP1;P1;durP2;ratioP2;P2;SDS_P1;SDS_P2;PMS_P1;PMS_P2;Temp;Humidity;BMP_temperature;BMP_pressure;BME280_temperature;BME280_humidity;BME280_pressure;Samples;Min_cycle;Max_cycle;Signal;HPM_P1;HPM_P2
2023/04/02 00:00:00;;;;;;;;;;;11.00;68.70;;;;;;5103013;27;87297;-40
2023/04/02 00:02:28;;;;;;;;;;;11.00;68.80;;;;;;5102847;27;88913;-40
2023/04/02 00:05:15;;;;;;;;;;;11.00;68.80;;;;;;5099570;27;89191;-40
2023/04/02 00:07:43;;;;;;;;;;;10.90;68.80;;;;;;5102871;27;87238;-40
2023/04/02 00:10:27;;;;;;;;;;;10.90;68.70;;;;;;5105554;27;87936;-40
2023/04/02 00:12:59;;;;;;;;;;;10.90;68.80;;;;;;5098164;27;88292;-40
2023/04/02 00:15:24;;;;;;;;;;;10.90;68.70;;;;;;5102732;27;89727;-40
2023/04/02 00:17:50;;;;;;;;;;;10.90;68.70;;;;;;5102341;27;88725;-40
2023/04/02 00:20:16;;;;;;;;;;;10.90;68.80;;;;;;5102729;27;87170;-40
2023/04/02 00:22:43;;;;;;;;;;;10.90;68.80;;;;;;5102770;27;88792;-40
2023/04/02 00:25:11;;;;;;;;;;;10.90;68.80;;;;;;5102465;27;89458;-40
2023/04/02 00:27:37;;;;;;;;;;;10.90;68.70;;;;;;5102634;27;87155;-40
2023/04/02 00:30:03;;;;;;;;;;;10.90;68.80;;;;;;5102815;27;88954;-40
2023/04/02 00:32:32;;;;;;;;;;;10.80;68.70;;;;;;5104822;27;89517;-40
2023/04/02 00:34:58;;;;;;;;;;;10.80;68.70;;;;;;5102612;27;88773;-40
2023/04/02 00:37:26;;;;;;;;;;;10.80;69.40;;;;;;5101916;27;90452;-40
2023/04/02 00:40:06;;;;;;;;;;;10.80;68.80;;;;;;5102492;27;87086;-40
2023/04/02 00:42:33;;;;;;;;;;;10.80;68.80;;;;;;5098892;27;88720;-40
2023/04/02 00:45:00;;;;;;;;;;;10.80;68.90;;;;;;5102032;27;89421;-40
2023/04/02 00:47:35;;;;;;;;;;;10.80;68.90;;;;;;5103212;27;87122;-40
2023/04/02 00:50:17;;;;;;;;;;;10.70;68.80;;;;;;5102728;27;87790;-40
2023/04/02 00:52:44;;;;;;;;;;;10.70;68.70;;;;;;5102205;27;88946;-40
2023/04/02 00:55:22;;;;;;;;;;;10.70;68.80;;;;;;5106055;27;87032;-40
2023/04/02 00:57:48;;;;;;;;;;;10.70;68.70;;;;;;5102044;27;89503;-40
2023/04/02 01:00:20;;;;;;;;;;;10.70;68.70;;;;;;5105714;27;87188;-40
2023/04/02 01:03:04;;;;;;;;;;;10.70;68.70;;;;;;5101354;27;88665;-40
2023/04/02 01:05:32;;;;;;;;;;;10.60;68.60;;;;;;5105885;27;88189;-40
2023/04/02 01:08:04;;;;;;;;;;;10.60;68.80;;;;;;5098234;27;87075;-40
2023/04/02 01:10:38;;;;;;;;;;;10.60;68.70;;;;;;5105725;27;88939;-40
2023/04/02 01:13:27;;;;;;;;;;;10.60;68.80;;;;;;5104776;27;89364;-40
2023/04/02 01:16:10;;;;;;;;;;;10.60;68.60;;;;;;5105887;27;87065;-40
2023/04/02 01:18:45;;;;;;;;;;;10.60;68.70;;;;;;5108024;27;88636;-40
2023/04/02 01:21:10;;;;;;;;;;;10.60;68.80;;;;;;5103021;27;86455;-40
2023/04/02 01:23:54;;;;;;;;;;;10.60;68.80;;;;;;5105668;27;88331;-40
2023/04/02 01:26:20;;;;;;;;;;;10.60;68.70;;;;;;5102089;27;87279;-40
2023/04/02 01:29:01;;;;;;;;;;;10.50;68.80;;;;;;5104990;27;88077;-40
2023/04/02 01:31:27;;;;;;;;;;;10.50;68.80;;;;;;5105556;27;89145;-40
2023/04/02 01:33:53;;;;;;;;;;;10.50;68.80;;;;;;5104914;27;89415;-40
2023/04/02 01:36:22;;;;;;;;;;;10.50;68.70;;;;;;5105223;27;87284;-40
2023/04/02 01:38:56;;;;;;;;;;;10.50;68.80;;;;;;5105202;27;87931;-40
2023/04/02 01:41:40;;;;;;;;;;;10.50;68.70;;;;;;5104415;27;89489;-40
2023/04/02 01:44:12;;;;;;;;;;;10.50;68.70;;;;;;5105447;27;88658;-40
2023/04/02 01:46:39;;;;;;;;;;;10.50;68.80;;;;;;5102522;27;87388;-40
2023/04/02 01:49:13;;;;;;;;;;;10.40;68.70;;;;;;5105251;27;87159;-40
2023/04/02 01:51:42;;;;;;;;;;;10.40;68.70;;;;;;5105432;27;88306;-40
2023/04/02 01:54:08;;;;;;;;;;;10.40;68.80;;;;;;5104168;27;90839;-40
2023/04/02 01:56:34;;;;;;;;;;;10.40;68.70;;;;;;5105151;27;87094;-40
2023/04/02 01:59:01;;;;;;;;;;;10.40;68.80;;;;;;5105223;27;88716;-40
2023/04/02 02:01:50;;;;;;;;;;;10.30;68.70;;;;;;5107528;27;88298;-40
2023/04/02 02:04:16;;;;;;;;;;;10.30;68.80;;;;;;5095068;27;88736;-40
2023/04/02 02:06:42;;;;;;;;;;;10.40;68.80;;;;;;5104395;27;88076;-40
2023/04/02 02:09:11;;;;;;;;;;;10.30;68.80;;;;;;5100894;27;87029;-40
2023/04/02 02:11:37;;;;;;;;;;;10.30;68.80;;;;;;5104672;27;89097;-40
2023/04/02 02:14:16;;;;;;;;;;;10.30;68.80;;;;;;5104408;27;88294;-40
2023/04/02 02:16:42;;;;;;;;;;;10.30;68.80;;;;;;5101474;27;87207;-40
2023/04/02 02:19:20;;;;;;;;;;;10.30;68.80;;;;;;5103968;27;88954;-40
2023/04/02 02:21:53;;;;;;;;;;;10.30;68.80;;;;;;5104247;27;88243;-40
2023/04/02 02:24:30;;;;;;;;;;;10.20;68.80;;;;;;5104852;27;87111;-40
2023/04/02 02:27:28;;;;;;;;;;;10.20;68.80;;;;;;5104387;27;89534;-40
2023/04/02 02:29:59;;;;;;;;;;;10.20;68.80;;;;;;5101144;27;87681;-40
2023/04/02 02:32:27;;;;;;;;;;;10.20;68.70;;;;;;5104812;27;88671;-40
2023/04/02 02:34:56;;;;;;;;;;;10.20;68.80;;;;;;5104064;27;89116;-40
2023/04/02 02:37:23;;;;;;;;;;;10.20;68.80;;;;;;5105424;27;86477;-40
2023/04/02 02:39:52;;;;;;;;;;;10.20;68.90;;;;;;5104535;27;88192;-40
2023/04/02 02:42:30;;;;;;;;;;;10.20;68.80;;;;;;5103866;27;89442;-40
2023/04/02 02:44:56;;;;;;;;;;;10.10;68.80;;;;;;5099917;27;88005;-40
2023/04/02 02:47:23;;;;;;;;;;;10.10;68.80;;;;;;5106831;27;90109;-40
2023/04/02 02:49:51;;;;;;;;;;;10.10;68.80;;;;;;5100250;27;87410;-40
2023/04/02 02:52:21;;;;;;;;;;;10.10;68.80;;;;;;5104873;27;90103;-40
2023/04/02 02:54:52;;;;;;;;;;;10.10;68.90;;;;;;5104035;27;89511;-40
2023/04/02 02:57:20;;;;;;;;;;;10.10;68.90;;;;;;5104237;27;87078;-40
2023/04/02 02:59:46;;;;;;;;;;;10.10;68.80;;;;;;5104424;27;87580;-40
2023/04/02 03:02:13;;;;;;;;;;;10.00;68.70;;;;;;5104618;27;88847;-40
2023/04/02 03:04:39;;;;;;;;;;;10.00;68.80;;;;;;5104090;27;87479;-40
2023/04/02 03:07:08;;;;;;;;;;;10.00;68.80;;;;;;5103903;27;89069;-40
2023/04/02 03:09:53;;;;;;;;;;;10.00;68.80;;;;;;5105422;27;89205;-40
2023/04/02 03:12:37;;;;;;;;;;;10.00;68.80;;;;;;5101144;27;89756;-40
2023/04/02 03:15:12;;;;;;;;;;;10.00;68.80;;;;;;5099862;27;88301;-40
2023/04/02 03:17:40;;;;;;;;;;;10.00;68.80;;;;;;5103908;27;86888;-40
2023/04/02 03:20:11;;;;;;;;;;;10.00;68.70;;;;;;5103859;27;88768;-40
2023/04/02 03:22:46;;;;;;;;;;;9.90;68.80;;;;;;5100138;27;90430;-40
2023/04/02 03:25:21;;;;;;;;;;;10.00;68.80;;;;;;5103775;27;87144;-40
2023/04/02 03:27:48;;;;;;;;;;;10.00;68.80;;;;;;5096782;27;88829;-40
2023/04/02 03:30:28;;;;;;;;;;;9.90;68.90;;;;;;5103278;27;89574;-40
2023/04/02 03:32:59;;;;;;;;;;;9.90;68.80;;;;;;5106339;27;87088;-40
2023/04/02 03:35:37;;;;;;;;;;;9.90;68.90;;;;;;5098370;27;90829;-40
2023/04/02 03:38:11;;;;;;;;;;;9.90;68.80;;;;;;5103526;27;87216;-40
2023/04/02 03:40:42;;;;;;;;;;;9.80;68.70;;;;;;5103273;27;88891;-40
2023/04/02 03:43:21;;;;;;;;;;;9.90;68.80;;;;;;5103335;27;87737;-40
2023/04/02 03:45:50;;;;;;;;;;;9.80;68.80;;;;;;5101319;27;87088;-40
2023/04/02 03:48:23;;;;;;;;;;;9.80;68.80;;;;;;5103296;27;87534;-40
2023/04/02 03:50:48;;;;;;;;;;;9.80;68.80;;;;;;5099184;27;89661;-40
2023/04/02 03:53:14;;;;;;;;;;;9.80;68.90;;;;;;5104083;27;86683;-40
2023/04/02 03:55:40;;;;;;;;;;;9.70;68.80;;;;;;5106211;27;87970;-40
2023/04/02 03:58:16;;;;;;;;;;;9.80;68.90;;;;;;5103506;27;87457;-40
2023/04/02 04:00:54;;;;;;;;;;;9.80;68.70;;;;;;5097856;27;88862;-40
2023/04/02 04:03:23;;;;;;;;;;;9.70;68.80;;;;;;5102984;27;87972;-40
2023/04/02 04:05:55;;;;;;;;;;;9.70;68.80;;;;;;5103282;27;87220;-40
2023/04/02 04:08:22;;;;;;;;;;;9.70;68.90;;;;;;5102970;27;87866;-40
2023/04/02 04:10:52;;;;;;;;;;;9.70;68.80;;;;;;5102747;27;89504;-40
2023/04/02 04:13:21;;;;;;;;;;;9.70;68.80;;;;;;5102725;27;87345;-40
2023/04/02 04:15:50;;;;;;;;;;;9.60;68.90;;;;;;5102073;27;88824;-40
2023/04/02 04:18:18;;;;;;;;;;;9.60;68.90;;;;;;5103584;27;86802;-40
2023/04/02 04:20:49;;;;;;;;;;;9.70;68.90;;;;;;5102929;27;88216;-40
2023/04/02 04:23:24;;;;;;;;;;;9.60;68.90;;;;;;5102740;27;88077;-40
2023/04/02 04:25:55;;;;;;;;;;;9.60;69.00;;;;;;5102478;27;88071;-40
2023/04/02 04:28:28;;;;;;;;;;;9.60;68.90;;;;;;5102770;27;89967;-40
2023/04/02 04:30:59;;;;;;;;;;;9.60;68.90;;;;;;5099140;27;87561;-40
2023/04/02 04:33:27;;;;;;;;;;;9.60;68.80;;;;;;5101999;27;87185;-40
2023/04/02 04:35:57;;;;;;;;;;;9.60;68.90;;;;;;5102876;27;88790;-40
2023/04/02 04:38:31;;;;;;;;;;;9.60;68.90;;;;;;5093805;27;89019;-40
2023/04/02 04:40:59;;;;;;;;;;;9.60;68.90;;;;;;5102601;27;88764;-40
2023/04/02 04:43:40;;;;;;;;;;;9.60;68.90;;;;;;5102501;27;88874;-40
2023/04/02 04:46:11;;;;;;;;;;;9.50;68.90;;;;;;5100629;27;87589;-40
2023/04/02 04:48:41;;;;;;;;;;;9.50;68.70;;;;;;5102433;27;89034;-40
2023/04/02 04:51:19;;;;;;;;;;;9.50;68.90;;;;;;5098122;27;88137;-40
2023/04/02 04:53:46;;;;;;;;;;;9.50;69.00;;;;;;5102197;27;87666;-40
2023/04/02 04:56:12;;;;;;;;;;;9.50;68.80;;;;;;5102616;27;87381;-40
2023/04/02 04:58:38;;;;;;;;;;;9.50;68.90;;;;;;5102448;27;88196;-40
2023/04/02 05:01:03;;;;;;;;;;;9.50;68.80;;;;;;5105655;27;87120;-40
2023/04/02 05:03:31;;;;;;;;;;;9.50;68.90;;;;;;5101681;27;89173;-40
2023/04/02 05:06:09;;;;;;;;;;;9.50;68.80;;;;;;5102094;27;87136;-40
2023/04/02 05:08:37;;;;;;;;;;;9.50;68.80;;;;;;5099732;27;87979;-40
2023/04/02 05:11:10;;;;;;;;;;;9.40;68.80;;;;;;5101639;27;89192;-40
2023/04/02 05:13:53;;;;;;;;;;;9.40;68.80;;;;;;5101744;27;87501;-40
2023/04/02 05:16:33;;;;;;;;;;;9.40;68.70;;;;;;5101572;27;88483;-40
2023/04/02 05:19:05;;;;;;;;;;;9.40;68.80;;;;;;5098816;27;89348;-40
2023/04/02 05:21:45;;;;;;;;;;;9.40;68.70;;;;;;5101941;27;87181;-40
2023/04/02 05:24:30;;;;;;;;;;;9.40;68.60;;;;;;5102241;27;87715;-40
2023/04/02 05:26:59;;;;;;;;;;;9.40;68.80;;;;;;5099028;27;87119;-40
2023/04/02 05:29:35;;;;;;;;;;;9.40;68.70;;;;;;5101652;27;88709;-40
2023/04/02 05:32:08;;;;;;;;;;;9.40;68.60;;;;;;5097662;27;88019;-40
2023/04/02 05:34:36;;;;;;;;;;;9.40;68.60;;;;;;5102271;27;86436;-40
2023/04/02 05:37:01;;;;;;;;;;;9.40;68.80;;;;;;5101892;27;88230;-40
2023/04/02 05:39:27;;;;;;;;;;;9.40;68.70;;;;;;5101362;27;89699;-40
2023/04/02 05:41:59;;;;;;;;;;;9.40;68.70;;;;;;5097176;27;88058;-40
2023/04/02 05:44:32;;;;;;;;;;;9.40;68.80;;;;;;5101723;27;89492;-40
2023/04/02 05:47:07;;;;;;;;;;;9.40;68.70;;;;;;5106348;27;89843;-40
2023/04/02 05:49:42;;;;;;;;;;;9.40;68.70;;;;;;5098337;27;88631;-40
2023/04/02 05:52:11;;;;;;;;;;;9.40;68.70;;;;;;5104935;27;89573;-40
2023/04/02 05:54:59;;;;;;;;;;;9.40;68.60;;;;;;5101103;27;87713;-40
2023/04/02 05:57:31;;;;;;;;;;;9.40;68.60;;;;;;5068519;27;88839;-40
2023/04/02 05:59:58;;;;;;;;;;;9.40;68.60;;;;;;5105671;27;87302;-40
2023/04/02 06:02:24;;;;;;;;;;;9.30;68.70;;;;;;5104761;27;87173;-40
2023/04/02 06:04:52;;;;;;;;;;;9.40;68.80;;;;;;5104542;27;89084;-41
2023/04/02 06:07:22;;;;;;;;;;;9.30;68.70;;;;;;5099305;27;90626;-40
2023/04/02 06:09:52;;;;;;;;;;;9.30;68.70;;;;;;5107829;27;87005;-40
2023/04/02 06:12:36;;;;;;;;;;;9.40;68.70;;;;;;5104490;27;89420;-40
2023/04/02 06:15:01;;;;;;;;;;;9.40;68.80;;;;;;5102034;27;87472;-40
2023/04/02 06:17:27;;;;;;;;;;;9.30;68.90;;;;;;5104612;27;88536;-40
2023/04/02 06:19:55;;;;;;;;;;;9.30;68.80;;;;;;5104350;27;89211;-40
2023/04/02 06:22:24;;;;;;;;;;;9.30;68.90;;;;;;5104590;27;87357;-40
2023/04/02 06:25:02;;;;;;;;;;;9.30;68.80;;;;;;5103647;27;90534;-40
2023/04/02 06:27:28;;;;;;;;;;;9.30;68.80;;;;;;5104157;27;88382;-40
2023/04/02 06:29:56;;;;;;;;;;;9.30;68.80;;;;;;5107769;27;87042;-40
2023/04/02 06:32:22;;;;;;;;;;;9.30;68.90;;;;;;5103443;27;89493;-40
2023/04/02 06:34:48;;;;;;;;;;;9.30;68.90;;;;;;5104676;27;87117;-40
2023/04/02 06:37:23;;;;;;;;;;;9.30;68.90;;;;;;5104154;27;87877;-40
2023/04/02 06:39:49;;;;;;;;;;;9.30;68.90;;;;;;5100309;27;89988;-40
2023/04/02 06:42:17;;;;;;;;;;;9.30;68.90;;;;;;5104305;27;87102;-40
2023/04/02 06:44:43;;;;;;;;;;;9.40;68.90;;;;;;5104382;27;87390;-40
2023/04/02 06:47:29;;;;;;;;;;;9.30;68.90;;;;;;5103710;27;88224;-40
2023/04/02 06:50:17;;;;;;;;;;;9.30;68.90;;;;;;5098749;27;86316;-40
2023/04/02 06:52:44;;;;;;;;;;;9.40;68.90;;;;;;5104642;27;88294;-40
2023/04/02 06:55:30;;;;;;;;;;;9.30;68.90;;;;;;5104214;27;87699;-40
2023/04/02 06:57:56;;;;;;;;;;;9.30;68.90;;;;;;5096904;27;88609;-40
2023/04/02 07:00:33;;;;;;;;;;;9.30;69.00;;;;;;5103467;27;90018;-40
2023/04/02 07:03:00;;;;;;;;;;;9.40;69.00;;;;;;5100992;27;87206;-40
2023/04/02 07:05:25;;;;;;;;;;;9.40;69.00;;;;;;5103775;27;88886;-40
2023/04/02 07:07:51;;;;;;;;;;;9.40;69.00;;;;;;5099441;27;88985;-40
2023/04/02 07:10:19;;;;;;;;;;;9.40;68.90;;;;;;5103780;27;87180;-40
2023/04/02 07:12:45;;;;;;;;;;;9.40;68.90;;;;;;5100612;27;87389;-40
2023/04/02 07:15:14;;;;;;;;;;;9.30;68.90;;;;;;5106826;27;88603;-40
2023/04/02 07:17:39;;;;;;;;;;;9.40;68.90;;;;;;5103806;27;88146;-40
2023/04/02 07:20:05;;;;;;;;;;;9.40;68.90;;;;;;5103431;27;89367;-40
2023/04/02 07:22:31;;;;;;;;;;;9.30;69.00;;;;;;5103099;27;88115;-40
2023/04/02 07:24:57;;;;;;;;;;;9.40;69.10;;;;;;5103561;27;89414;-40
2023/04/02 07:27:23;;;;;;;;;;;9.30;69.00;;;;;;5103197;27;89266;-40
2023/04/02 07:29:48;;;;;;;;;;;9.40;69.10;;;;;;5103512;27;87069;-40
2023/04/02 07:32:14;;;;;;;;;;;9.40;69.00;;;;;;5103799;27;87449;-40
2023/04/02 07:34:40;;;;;;;;;;;9.40;69.10;;;;;;5102443;27;88484;-40
2023/04/02 07:37:05;;;;;;;;;;;9.40;69.10;;;;;;5106028;27;87492;-40
2023/04/02 07:39:31;;;;;;;;;;;9.30;69.20;;;;;;5103422;27;88578;-40
2023/04/02 07:41:58;;;;;;;;;;;9.40;69.10;;;;;;5103553;27;87029;-40
2023/04/02 07:44:23;;;;;;;;;;;9.30;69.20;;;;;;5103754;27;88796;-40
2023/04/02 07:46:49;;;;;;;;;;;9.30;69.20;;;;;;5102232;27;89994;-40
2023/04/02 07:49:15;;;;;;;;;;;9.40;69.20;;;;;;5103410;27;87096;-40
2023/04/02 07:51:40;;;;;;;;;;;9.40;69.20;;;;;;5103651;27;87405;-40
2023/04/02 07:54:08;;;;;;;;;;;9.40;69.20;;;;;;5102784;27;88786;-40
2023/04/02 07:56:35;;;;;;;;;;;9.40;69.10;;;;;;5103360;27;87513;-40
2023/04/02 07:59:00;;;;;;;;;;;9.40;69.20;;;;;;5105894;27;87338;-40
2023/04/02 08:01:26;;;;;;;;;;;9.40;69.10;;;;;;5102808;27;87166;-40
2023/04/02 08:03:52;;;;;;;;;;;9.40;69.20;;;;;;5102921;27;89302;-40
2023/04/02 08:06:18;;;;;;;;;;;9.40;69.20;;;;;;5102264;27;87297;-40
2023/04/02 08:08:43;;;;;;;;;;;9.40;69.20;;;;;;5102129;27;87290;-40
2023/04/02 08:11:09;;;;;;;;;;;9.40;69.10;;;;;;5102452;27;87988;-40
2023/04/02 08:13:35;;;;;;;;;;;9.40;69.00;;;;;;5101814;27;89437;-40
2023/04/02 08:16:01;;;;;;;;;;;9.50;69.10;;;;;;5102793;27;87115;-40
2023/04/02 08:18:27;;;;;;;;;;;9.50;69.10;;;;;;5105293;27;89086;-40
2023/04/02 08:20:52;;;;;;;;;;;9.50;69.10;;;;;;5102453;27;87147;-40
2023/04/02 08:23:18;;;;;;;;;;;9.50;69.10;;;;;;5102895;27;88840;-40
2023/04/02 08:25:44;;;;;;;;;;;9.50;69.10;;;;;;5102693;27;87178;-40
2023/04/02 08:28:10;;;;;;;;;;;9.50;69.30;;;;;;5103508;27;86855;-40
2023/04/02 08:30:36;;;;;;;;;;;9.50;69.20;;;;;;5102779;27;88219;-40
2023/04/02 08:33:01;;;;;;;;;;;9.40;69.20;;;;;;5102146;27;89210;-40
2023/04/02 08:35:27;;;;;;;;;;;9.50;69.30;;;;;;5101914;27;88073;-40
2023/04/02 08:37:52;;;;;;;;;;;9.50;69.20;;;;;;5102835;27;88191;-40
2023/04/02 08:40:21;;;;;;;;;;;9.50;69.10;;;;;;5105288;27;88206;-40
2023/04/02 08:42:56;;;;;;;;;;;9.50;69.10;;;;;;5102682;27;87928;-40
2023/04/02 08:45:29;;;;;;;;;;;9.50;69.00;;;;;;5102426;27;88051;-40
2023/04/02 08:47:56;;;;;;;;;;;9.50;69.00;;;;;;5097772;27;87124;-40
2023/04/02 08:50:27;;;;;;;;;;;9.50;69.10;;;;;;5099984;27;88619;-40
2023/04/02 08:52:53;;;;;;;;;;;9.50;69.10;;;;;;5102762;27;88694;-40
2023/04/02 08:55:25;;;;;;;;;;;9.50;69.10;;;;;;5102806;27;86941;-40
2023/04/02 08:57:58;;;;;;;;;;;9.50;69.00;;;;;;5102122;27;88583;-40
2023/04/02 09:00:38;;;;;;;;;;;9.50;69.00;;;;;;5101419;27;90730;-40
2023/04/02 09:03:09;;;;;;;;;;;9.60;69.10;;;;;;5102660;27;87114;-40
2023/04/02 09:05:37;;;;;;;;;;;9.60;69.00;;;;;;5101723;27;87171;-40
2023/04/02 09:08:05;;;;;;;;;;;9.60;69.00;;;;;;5097912;27;86988;-40
2023/04/02 09:10:36;;;;;;;;;;;9.60;69.20;;;;;;5101762;27;88798;-40
2023/04/02 09:13:04;;;;;;;;;;;9.60;69.00;;;;;;5101036;27;89233;-41
2023/04/02 09:15:32;;;;;;;;;;;9.60;69.10;;;;;;5102390;27;86994;-40
2023/04/02 09:18:12;;;;;;;;;;;9.70;68.90;;;;;;5098820;27;86563;-40
2023/04/02 09:20:39;;;;;;;;;;;9.70;68.90;;;;;;5103294;27;89701;-40
2023/04/02 09:23:04;;;;;;;;;;;9.70;68.80;;;;;;5104949;27;87148;-40
2023/04/02 09:25:30;;;;;;;;;;;9.70;68.80;;;;;;5107561;27;87986;-40
2023/04/02 09:27:59;;;;;;;;;;;9.80;68.80;;;;;;5105235;27;87091;-40
2023/04/02 09:30:31;;;;;;;;;;;9.80;68.80;;;;;;5105366;27;88788;-41
2023/04/02 09:32:57;;;;;;;;;;;9.80;68.70;;;;;;5104950;27;87979;-40
2023/04/02 09:35:22;;;;;;;;;;;9.80;68.70;;;;;;5105300;27;87227;-40
2023/04/02 09:38:07;;;;;;;;;;;9.80;68.80;;;;;;5105531;27;88616;-40
2023/04/02 09:40:41;;;;;;;;;;;9.80;69.00;;;;;;5100850;27;89336;-40
2023/04/02 09:43:14;;;;;;;;;;;9.80;69.00;;;;;;5106223;27;86592;-40
2023/04/02 09:45:41;;;;;;;;;;;9.90;69.10;;;;;;5105578;27;88021;-40
2023/04/02 09:48:25;;;;;;;;;;;9.80;69.00;;;;;;5107838;27;89015;-40
2023/04/02 09:51:03;;;;;;;;;;;9.90;69.00;;;;;;5104432;27;89499;-40
2023/04/02 09:53:32;;;;;;;;;;;9.90;68.90;;;;;;5104856;27;88112;-40
2023/04/02 09:56:27;;;;;;;;;;;9.90;69.00;;;;;;5105264;27;87175;-40
2023/04/02 09:59:03;;;;;;;;;;;9.90;69.10;;;;;;5087450;27;89306;-40
2023/04/02 10:01:30;;;;;;;;;;;10.00;69.00;;;;;;5104749;27;89221;-40
2023/04/02 10:03:57;;;;;;;;;;;9.90;68.90;;;;;;5104797;27;87152;-41
2023/04/02 10:06:23;;;;;;;;;;;10.00;69.00;;;;;;5104876;27;88998;-40
2023/04/02 10:08:49;;;;;;;;;;;9.90;68.60;;;;;;5104735;27;88806;-40
2023/04/02 10:11:23;;;;;;;;;;;10.00;68.60;;;;;;5107547;27;87436;-40
2023/04/02 10:14:08;;;;;;;;;;;10.00;68.80;;;;;;5103946;27;89627;-40
2023/04/02 10:16:37;;;;;;;;;;;10.10;68.70;;;;;;5101793;27;88416;-40
2023/04/02 10:19:13;;;;;;;;;;;10.10;68.50;;;;;;5104711;27;88447;-41
2023/04/02 10:21:40;;;;;;;;;;;10.10;66.80;;;;;;5102090;27;88332;-39
2023/04/02 10:24:12;;;;;;;;;;;10.10;67.10;;;;;;5105253;27;87399;-40
2023/04/02 10:26:37;;;;;;;;;;;10.20;67.60;;;;;;5104963;27;88004;-39
2023/04/02 10:29:20;;;;;;;;;;;10.20;67.70;;;;;;5102983;27;89839;-39
2023/04/02 10:31:52;;;;;;;;;;;10.30;67.60;;;;;;5107189;27;87567;-39
2023/04/02 10:34:28;;;;;;;;;;;10.30;67.80;;;;;;5101783;27;87519;-39
2023/04/02 10:36:54;;;;;;;;;;;10.30;67.70;;;;;;5104735;27;87108;-39
2023/04/02 10:39:22;;;;;;;;;;;10.30;67.80;;;;;;5105087;27;87320;-39
2023/04/02 10:42:03;;;;;;;;;;;10.40;67.90;;;;;;5103969;27;88939;-39
2023/04/02 10:44:29;;;;;;;;;;;10.40;68.00;;;;;;5104851;27;87139;-39
2023/04/02 10:46:57;;;;;;;;;;;10.40;68.00;;;;;;5100793;27;87100;-39
2023/04/02 10:49:26;;;;;;;;;;;10.50;68.20;;;;;;5104054;27;87948;-39
2023/04/02 10:51:55;;;;;;;;;;;10.50;68.20;;;;;;5104724;27;87185;-39
2023/04/02 10:54:23;;;;;;;;;;;10.40;68.00;;;;;;5107101;27;87610;-39
2023/04/02 10:56:51;;;;;;;;;;;10.50;68.30;;;;;;5100658;27;86985;-42
2023/04/02 10:59:17;;;;;;;;;;;10.50;68.50;;;;;;5104975;27;86566;-38
2023/04/02 11:01:44;;;;;;;;;;;10.50;68.10;;;;;;5100103;27;88268;-41
2023/04/02 11:04:13;;;;;;;;;;;10.60;66.30;;;;;;5104380;27;87163;-41
2023/04/02 11:06:44;;;;;;;;;;;10.60;66.00;;;;;;5103669;27;88424;-40
2023/04/02 11:09:30;;;;;;;;;;;10.70;64.80;;;;;;5103601;27;89916;-39
2023/04/02 11:11:57;;;;;;;;;;;10.70;63.50;;;;;;5096097;27;87840;-38
2023/04/02 11:14:24;;;;;;;;;;;10.70;63.50;;;;;;5103808;27;87309;-38
2023/04/02 11:16:50;;;;;;;;;;;10.80;64.00;;;;;;5106785;27;88567;-39
2023/04/02 11:19:16;;;;;;;;;;;10.80;62.80;;;;;;5104203;27;87343;-41
2023/04/02 11:21:43;;;;;;;;;;;10.90;63.10;;;;;;5103578;27;89319;-38
2023/04/02 11:24:28;;;;;;;;;;;11.00;61.30;;;;;;5104342;27;86452;-40
2023/04/02 11:27:14;;;;;;;;;;;11.00;63.50;;;;;;5103134;27;87904;-40
2023/04/02 11:29:39;;;;;;;;;;;11.00;62.60;;;;;;5103710;27;88310;-40
2023/04/02 11:32:25;;;;;;;;;;;11.00;62.40;;;;;;5103321;27;88156;-40
2023/04/02 11:34:52;;;;;;;;;;;11.10;62.50;;;;;;5103338;27;89782;-39
2023/04/02 11:37:33;;;;;;;;;;;11.10;62.70;;;;;;5103198;27;89479;-39
2023/04/02 11:39:59;;;;;;;;;;;11.10;60.60;;;;;;5106970;27;87217;-40
2023/04/02 11:42:25;;;;;;;;;;;11.10;61.80;;;;;;5103063;27;88547;-41
2023/04/02 11:44:51;;;;;;;;;;;11.10;61.20;;;;;;5098584;27;87684;-39
2023/04/02 11:47:18;;;;;;;;;;;11.20;60.90;;;;;;5103677;27;87701;-41
2023/04/02 11:49:50;;;;;;;;;;;11.30;61.30;;;;;;5104006;27;86424;-46
2023/04/02 11:52:19;;;;;;;;;;;11.40;61.50;;;;;;5103684;27;87153;-39
2023/04/02 11:54:53;;;;;;;;;;;11.50;61.00;;;;;;5099891;27;88721;-40
2023/04/02 11:57:31;;;;;;;;;;;11.50;61.10;;;;;;5098575;27;89048;-41
2023/04/02 12:00:03;;;;;;;;;;;11.50;61.40;;;;;;5099732;27;87384;-40
2023/04/02 12:02:37;;;;;;;;;;;11.50;61.70;;;;;;5101283;27;88698;-40
2023/04/02 12:05:17;;;;;;;;;;;11.50;59.70;;;;;;5099449;27;86921;-40
2023/04/02 12:07:54;;;;;;;;;;;11.50;60.30;;;;;;5103209;27;88246;-40
2023/04/02 12:10:26;;;;;;;;;;;11.60;60.40;;;;;;5099638;27;87298;-40
2023/04/02 12:12:52;;;;;;;;;;;11.60;60.10;;;;;;5102432;27;87132;-40
2023/04/02 12:15:41;;;;;;;;;;;11.60;60.20;;;;;;5103529;27;87593;-41
2023/04/02 12:18:18;;;;;;;;;;;11.60;60.20;;;;;;5102088;27;88171;-41
2023/04/02 12:20:51;;;;;;;;;;;11.70;60.30;;;;;;5098923;27;87186;-41
2023/04/02 12:23:18;;;;;;;;;;;11.70;60.70;;;;;;5102259;27;87975;-42
2023/04/02 12:25:45;;;;;;;;;;;11.70;61.50;;;;;;5105430;27;88226;-42
2023/04/02 12:28:13;;;;;;;;;;;11.70;62.70;;;;;;5102758;27;87528;-42
2023/04/02 12:30:39;;;;;;;;;;;11.80;60.90;;;;;;5102406;27;87992;-41
2023/04/02 12:33:14;;;;;;;;;;;11.80;61.20;;;;;;5102797;27;87121;-41
2023/04/02 12:35:41;;;;;;;;;;;11.80;60.70;;;;;;5098980;27;87407;-41
2023/04/02 12:38:20;;;;;;;;;;;11.80;58.60;;;;;;5102306;27;88092;-43
2023/04/02 12:40:52;;;;;;;;;;;11.80;58.90;;;;;;5102851;27;86507;-42
2023/04/02 12:43:22;;;;;;;;;;;11.80;57.80;;;;;;5102692;27;87041;-43
2023/04/02 12:45:50;;;;;;;;;;;11.90;58.10;;;;;;5105209;27;88074;-42
2023/04/02 12:48:16;;;;;;;;;;;11.90;56.70;;;;;;5097887;27;88292;-42
2023/04/02 12:50:41;;;;;;;;;;;12.00;57.60;;;;;;5102210;27;88145;-42
2023/04/02 12:53:17;;;;;;;;;;;12.00;57.40;;;;;;5102064;27;87104;-42
2023/04/02 12:55:45;;;;;;;;;;;12.00;56.30;;;;;;5104235;27;89409;-41
2023/04/02 12:58:23;;;;;;;;;;;12.00;57.10;;;;;;5105773;27;87935;-41
2023/04/02 13:00:48;;;;;;;;;;;12.00;60.30;;;;;;5106355;27;87145;-50
2023/04/02 13:03:16;;;;;;;;;;;12.20;62.00;;;;;;5106439;27;87496;-43
2023/04/02 13:05:55;;;;;;;;;;;12.20;60.40;;;;;;5106179;27;87241;-44
2023/04/02 13:08:27;;;;;;;;;;;12.30;58.60;;;;;;5108722;27;87019;-43
2023/04/02 13:10:55;;;;;;;;;;;12.20;57.60;;;;;;5105532;27;88081;-44
2023/04/02 13:13:25;;;;;;;;;;;12.20;58.20;;;;;;5105186;27;88112;-40
2023/04/02 13:16:02;;;;;;;;;;;12.30;59.20;;;;;;5105712;27;90283;-41
2023/04/02 13:18:28;;;;;;;;;;;12.30;60.70;;;;;;5105817;27;88048;-40
2023/04/02 13:20:58;;;;;;;;;;;12.30;57.00;;;;;;5106301;27;87179;-41
2023/04/02 13:23:23;;;;;;;;;;;12.30;56.30;;;;;;5106089;27;87075;-41
2023/04/02 13:25:49;;;;;;;;;;;12.30;57.50;;;;;;5105659;27;88058;-39
2023/04/02 13:28:15;;;;;;;;;;;12.30;56.70;;;;;;5105568;27;87558;-39
2023/04/02 13:30:40;;;;;;;;;;;12.40;58.10;;;;;;5108984;27;87567;-39
2023/04/02 13:33:06;;;;;;;;;;;12.40;59.00;;;;;;5105821;27;87426;-39
2023/04/02 13:35:32;;;;;;;;;;;12.30;59.30;;;;;;5105575;27;87455;-39
2023/04/02 13:37:57;;;;;;;;;;;12.30;59.80;;;;;;5104793;27;90184;-39
2023/04/02 13:40:23;;;;;;;;;;;12.30;60.10;;;;;;5105378;27;87379;-39
2023/04/02 13:42:49;;;;;;;;;;;12.20;60.10;;;;;;5105409;27;88739;-39
2023/04/02 13:45:27;;;;;;;;;;;12.20;60.70;;;;;;5105083;27;89048;-39
2023/04/02 13:47:53;;;;;;;;;;;12.20;61.00;;;;;;5105537;27;87104;-39
2023/04/02 13:50:20;;;;;;;;;;;12.20;61.30;;;;;;5104783;27;87691;-39
2023/04/02 13:52:47;;;;;;;;;;;12.20;61.40;;;;;;5107833;27;89301;-39
2023/04/02 13:55:13;;;;;;;;;;;12.20;61.50;;;;;;5105363;27;89239;-39
2023/04/02 13:57:38;;;;;;;;;;;12.20;61.50;;;;;;5104665;27;89501;-39
2023/04/02 14:00:04;;;;;;;;;;;12.10;61.60;;;;;;5105243;27;87458;-39
2023/04/02 14:02:30;;;;;;;;;;;12.20;61.70;;;;;;5104667;27;88563;-39
2023/04/02 14:05:19;;;;;;;;;;;12.10;61.80;;;;;;5105084;27;88181;-39
2023/04/02 14:07:45;;;;;;;;;;;12.10;62.00;;;;;;5074886;27;87851;-39
2023/04/02 14:10:15;;;;;;;;;;;12.10;62.20;;;;;;5105029;27;88868;-39
2023/04/02 14:13:00;;;;;;;;;;;12.10;62.10;;;;;;5101239;27;89013;-39
2023/04/02 14:15:44;;;;;;;;;;;12.10;62.30;;;;;;5104041;27;87517;-39
2023/04/02 14:18:28;;;;;;;;;;;12.20;62.50;;;;;;5104204;27;89346;-39
2023/04/02 14:21:02;;;;;;;;;;;12.20;62.40;;;;;;5103485;27;86401;-39
2023/04/02 14:23:30;;;;;;;;;;;12.30;62.60;;;;;;5101353;27;88397;-39
2023/04/02 14:26:02;;;;;;;;;;;12.30;62.50;;;;;;5103979;27;88111;-39
2023/04/02 14:28:48;;;;;;;;;;;12.30;62.70;;;;;;5103762;27;88212;-39
2023/04/02 14:31:17;;;;;;;;;;;12.30;62.80;;;;;;5102834;27;89804;-39
2023/04/02 14:33:56;;;;;;;;;;;12.30;62.80;;;;;;5104196;27;89317;-39
2023/04/02 14:36:34;;;;;;;;;;;12.30;63.00;;;;;;5102267;27;89607;-39
2023/04/02 14:39:11;;;;;;;;;;;12.30;63.10;;;;;;5103448;27;88813;-39
2023/04/02 14:41:57;;;;;;;;;;;12.30;63.10;;;;;;5104171;27;87124;-39
2023/04/02 14:44:25;;;;;;;;;;;12.30;63.10;;;;;;5097888;27;89089;-39